Time;durP1;ratioP1;P1;durP2;ratioP2;P2;SDS_P1;SDS_P2;PMS_P1;PMS_P2;Temp;Humidity;BMP_temperature;BMP_pressure;BME280_temperature;BME280_humidity;BME280_pressure;Samples;Min_cycle;Max_cycle;Signal;HPM_P1;HPM_P2
2022/07/03 00:02:09;;;;;;;2.90;2.30;;;;;;;;;;12649031;28;20039;-83
2022/07/03 00:08:11;;;;;;;3.20;1.95;;;;;;;;;;12630855;28;20379;-78
2022/07/03 00:14:13;;;;;;;3.25;2.30;;;;;;;;;;12630501;28;20048;-79
2022/07/03 00:20:14;;;;;;;6.93;2.53;;;;;;;;;;12648183;28;20032;-82
2022/07/03 00:26:19;;;;;;;4.50;2.40;;;;;;;;;;12629528;28;20028;-78
2022/07/03 00:32:24;;;;;;;4.00;2.25;;;;;;;;;;12647119;28;20039;-79
2022/07/03 00:38:27;;;;;;;5.13;2.67;;;;;;;;;;12628804;28;20044;-83
2022/07/03 00:44:29;;;;;;;4.80;2.40;;;;;;;;;;12612015;28;20396;-82
2022/07/03 00:50:34;;;;;;;3.30;2.13;;;;;;;;;;12628381;28;20031;-79
2022/07/03 00:56:38;;;;;;;3.42;2.13;;;;;;;;;;12646124;28;20067;-83
2022/07/03 01:03:02;;;;;;;3.65;2.17;;;;;;;;;;12645990;28;20039;-78
2022/07/03 01:09:06;;;;;;;3.90;2.03;;;;;;;;;;12612485;28;20036;-83
2022/07/03 01:15:12;;;;;;;3.00;1.90;;;;;;;;;;12626937;28;20044;-83
2022/07/03 01:21:31;;;;;;;2.40;2.20;;;;;;;;;;12645346;28;20039;-83
2022/07/03 01:27:52;;;;;;;3.35;1.90;;;;;;;;;;12610871;28;20392;-78
2022/07/03 01:33:54;;;;;;;3.28;1.80;;;;;;;;;;12626629;28;20040;-83
2022/07/03 01:39:57;;;;;;;3.28;2.25;;;;;;;;;;12645186;28;20063;-83
2022/07/03 01:46:00;;;;;;;3.03;2.30;;;;;;;;;;12610808;28;20028;-78
2022/07/03 01:52:02;;;;;;;2.70;2.10;;;;;;;;;;12644988;28;20039;-83
2022/07/03 01:58:04;;;;;;;3.75;1.83;;;;;;;;;;12626056;28;20051;-79
2022/07/03 02:04:09;;;;;;;4.03;1.85;;;;;;;;;;12628604;28;20095;-83
2022/07/03 02:10:16;;;;;;;3.05;2.15;;;;;;;;;;12655339;28;20383;-78
2022/07/03 02:16:19;;;;;;;2.30;1.95;;;;;;;;;;12635784;28;20048;-78
2022/07/03 02:22:26;;;;;;;3.70;2.35;;;;;;;;;;12636024;28;20036;-83
2022/07/03 02:28:30;;;;;;;3.47;1.95;;;;;;;;;;12635346;28;20522;-83
2022/07/03 02:34:34;;;;;;;2.38;2.17;;;;;;;;;;12635317;28;20297;-78
2022/07/03 02:40:54;;;;;;;4.70;2.08;;;;;;;;;;12653002;28;20066;-83
2022/07/03 02:47:15;;;;;;;2.58;1.70;;;;;;;;;;12634391;28;20040;-78
2022/07/03 02:53:26;;;;;;;4.13;1.98;;;;;;;;;;12652582;28;20036;-83
2022/07/03 02:59:29;;;;;;;3.25;1.52;;;;;;;;;;12634097;28;20434;-78
2022/07/03 03:05:53;;;;;;;3.00;2.05;;;;;;;;;;12633407;28;20028;-83
2022/07/03 03:11:59;;;;;;;2.58;1.90;;;;;;;;;;12633107;28;20506;-78
2022/07/03 03:18:08;;;;;;;3.08;2.15;;;;;;;;;;12632806;28;20040;-82
2022/07/03 03:24:10;;;;;;;2.03;1.83;;;;;;;;;;12633809;28;20054;-78
2022/07/03 03:30:12;;;;;;;2.38;1.80;;;;;;;;;;12650327;28;20035;-82
2022/07/03 03:36:16;;;;;;;2.72;1.48;;;;;;;;;;12615951;28;20383;-82
2022/07/03 03:42:18;;;;;;;1.77;1.65;;;;;;;;;;12632098;28;20052;-82
2022/07/03 03:48:20;;;;;;;1.73;1.63;;;;;;;;;;12632441;28;20036;-81
2022/07/03 03:54:22;;;;;;;2.00;1.60;;;;;;;;;;12649381;28;20056;-77
2022/07/03 04:00:23;;;;;;;1.58;1.48;;;;;;;;;;12630736;28;20365;-82
2022/07/03 04:06:45;;;;;;;1.70;1.60;;;;;;;;;;12648110;28;20036;-77
2022/07/03 04:12:47;;;;;;;1.85;1.08;;;;;;;;;;12648789;28;20035;-82
2022/07/03 04:18:49;;;;;;;1.80;1.67;;;;;;;;;;12648082;28;20040;-82
2022/07/03 04:24:50;;;;;;;1.38;1.20;;;;;;;;;;12629611;28;20036;-77
2022/07/03 04:30:52;;;;;;;1.35;1.15;;;;;;;;;;12612735;28;20028;-77
2022/07/03 04:37:01;;;;;;;2.22;1.30;;;;;;;;;;12647360;28;20048;-78
2022/07/03 04:43:03;;;;;;;1.30;1.20;;;;;;;;;;12646753;28;20044;-77
2022/07/03 04:49:04;;;;;;;1.77;1.00;;;;;;;;;;12646582;28;20035;-78
2022/07/03 04:55:07;;;;;;;1.48;1.02;;;;;;;;;;12628174;28;20403;-78
2022/07/03 05:01:09;;;;;;;1.58;1.05;;;;;;;;;;12628570;28;20046;-82
2022/07/03 05:07:11;;;;;;;2.08;1.13;;;;;;;;;;12613319;28;20036;-82
2022/07/03 05:13:13;;;;;;;2.25;1.45;;;;;;;;;;12644905;28;20036;-82
2022/07/03 05:19:14;;;;;;;1.30;0.98;;;;;;;;;;12645139;28;20048;-77
2022/07/03 05:25:16;;;;;;;2.42;0.70;;;;;;;;;;12644761;28;20396;-77
2022/07/03 05:31:18;;;;;;;1.20;0.73;;;;;;;;;;12644339;28;20039;-78
2022/07/03 05:37:20;;;;;;;1.73;1.38;;;;;;;;;;12626312;28;20443;-78
2022/07/03 05:43:22;;;;;;;0.90;0.90;;;;;;;;;;12627206;28;20043;-78
2022/07/03 05:49:23;;;;;;;1.58;0.75;;;;;;;;;;12643642;28;20047;-78
2022/07/03 05:55:25;;;;;;;3.35;1.10;;;;;;;;;;12625958;28;20044;-83
2022/07/03 06:01:27;;;;;;;1.25;0.93;;;;;;;;;;12608799;28;20039;-83
2022/07/03 06:07:29;;;;;;;1.55;0.90;;;;;;;;;;12626341;28;20040;-83
2022/07/03 06:13:30;;;;;;;0.82;0.82;;;;;;;;;;12625701;28;20036;-83
2022/07/03 06:19:32;;;;;;;1.52;0.65;;;;;;;;;;12626878;28;20476;-83
2022/07/03 06:25:34;;;;;;;1.05;0.82;;;;;;;;;;12608981;28;20384;-83
2022/07/03 06:31:36;;;;;;;0.98;0.80;;;;;;;;;;12625523;28;20044;-83
2022/07/03 06:37:37;;;;;;;1.02;0.60;;;;;;;;;;12608753;28;20496;-84
2022/07/03 06:43:39;;;;;;;1.35;0.90;;;;;;;;;;12624508;28;20028;-81
2022/07/03 06:49:43;;;;;;;1.13;0.80;;;;;;;;;;12608921;28;20036;-82
2022/07/03 06:55:45;;;;;;;0.70;0.55;;;;;;;;;;12651728;28;20048;-83
2022/07/03 07:01:46;;;;;;;0.70;0.60;;;;;;;;;;12633257;28;20036;-82
2022/07/03 07:07:48;;;;;;;1.77;0.63;;;;;;;;;;12652072;28;20036;-82
2022/07/03 07:13:50;;;;;;;1.02;0.70;;;;;;;;;;12615824;28;20506;-83
2022/07/03 07:19:51;;;;;;;0.90;0.80;;;;;;;;;;12651809;28;20047;-83
2022/07/03 07:25:53;;;;;;;0.60;0.50;;;;;;;;;;12632039;28;20465;-82
2022/07/03 07:31:55;;;;;;;1.02;0.93;;;;;;;;;;12631931;28;20031;-82
2022/07/03 07:37:57;;;;;;;0.55;0.43;;;;;;;;;;12631796;28;20040;-82
2022/07/03 07:44:00;;;;;;;0.47;0.40;;;;;;;;;;12630620;28;20036;-82
2022/07/03 07:50:02;;;;;;;0.80;0.60;;;;;;;;;;12631252;28;20036;-82
2022/07/03 07:56:04;;;;;;;0.93;0.68;;;;;;;;;;12630431;28;20044;-83
2022/07/03 08:08:26;;;;;;;1.33;0.60;;;;;;;;;;12647918;28;20063;-83
2022/07/03 08:14:27;;;;;;;1.48;0.60;;;;;;;;;;12647516;28;20043;-82
2022/07/03 08:20:29;;;;;;;1.20;0.70;;;;;;;;;;12648348;28;20051;-78
2022/07/03 08:26:31;;;;;;;1.92;0.50;;;;;;;;;;12647165;28;20028;-78
2022/07/03 08:32:32;;;;;;;1.13;0.60;;;;;;;;;;12647327;28;20123;-78
2022/07/03 08:38:35;;;;;;;0.55;0.50;;;;;;;;;;12647050;28;20044;-78
2022/07/03 08:44:37;;;;;;;1.20;0.90;;;;;;;;;;12646109;28;20035;-78
2022/07/03 08:50:39;;;;;;;2.80;1.00;;;;;;;;;;12645958;28;20039;-78
2022/07/03 08:56:41;;;;;;;0.60;0.52;;;;;;;;;;12627279;28;20047;-79
2022/07/03 09:02:45;;;;;;;2.90;0.80;;;;;;;;;;12610705;28;20047;-78
2022/07/03 09:08:47;;;;;;;1.08;0.60;;;;;;;;;;12628662;28;20452;-78
2022/07/03 09:14:49;;;;;;;0.70;0.52;;;;;;;;;;12644279;28;20055;-82
2022/07/03 09:21:02;;;;;;;1.40;0.80;;;;;;;;;;12626615;28;20044;-83
2022/07/03 09:27:07;;;;;;;0.68;0.68;;;;;;;;;;12626782;28;20043;-78
2022/07/03 09:33:09;;;;;;;1.85;0.68;;;;;;;;;;12644634;28;20360;-78
2022/07/03 09:39:22;;;;;;;2.10;0.60;;;;;;;;;;12610161;28;20052;-78
2022/07/03 09:45:23;;;;;;;1.08;0.60;;;;;;;;;;12644062;28;20040;-78
2022/07/03 09:51:28;;;;;;;2.65;0.95;;;;;;;;;;12643892;28;20032;-78
2022/07/03 09:57:30;;;;;;;1.20;0.93;;;;;;;;;;12608821;28;20036;-79
2022/07/03 10:03:32;;;;;;;1.45;0.60;;;;;;;;;;12643890;28;20032;-78
2022/07/03 10:09:34;;;;;;;1.20;0.63;;;;;;;;;;12626214;28;20396;-78
2022/07/03 10:15:37;;;;;;;0.73;0.60;;;;;;;;;;12625011;28;20052;-78
2022/07/03 10:21:39;;;;;;;0.47;0.47;;;;;;;;;;12625367;28;20020;-78
2022/07/03 10:27:42;;;;;;;3.45;0.95;;;;;;;;;;12632197;28;20032;-78
2022/07/03 10:33:44;;;;;;;0.80;0.77;;;;;;;;;;12635423;28;20032;-78
2022/07/03 10:46:26;;;;;;;2.50;0.82;;;;;;;;;;12620061;28;20051;-82
2022/07/03 10:52:27;;;;;;;2.75;0.80;;;;;;;;;;12651734;28;20036;-83
2022/07/03 10:58:29;;;;;;;1.92;1.00;;;;;;;;;;12651563;28;20047;-83
2022/07/03 11:04:51;;;;;;;1.10;0.77;;;;;;;;;;12651538;28;20028;-83
2022/07/03 11:11:54;;;;;;;1.45;0.95;;;;;;;;;;12632688;28;20036;-82
2022/07/03 11:17:20;;;;;;;1.90;0.70;;;;;;;;;;12650738;28;20044;-83
2022/07/03 11:23:31;;;;;;;2.60;0.90;;;;;;;;;;12650345;28;20036;-83
2022/07/03 11:29:32;;;;;;;;;;;;;;;;;;12650412;28;20602;-81
2022/07/03 11:35:51;;;;;;;3.33;1.33;;;;;;;;;;12651534;28;19916;-82
2022/07/03 11:41:53;;;;;;;1.45;0.95;;;;;;;;;;12631427;28;20381;-83
2022/07/03 11:47:56;;;;;;;1.40;0.88;;;;;;;;;;12631163;28;20042;-82
2022/07/03 11:53:57;;;;;;;0.75;0.70;;;;;;;;;;12648567;28;20032;-81
2022/07/03 12:00:06;;;;;;;0.95;0.63;;;;;;;;;;12630475;28;20044;-82
2022/07/03 12:06:40;;;;;;;1.00;0.70;;;;;;;;;;12648122;28;20045;-82
2022/07/03 12:12:42;;;;;;;1.13;0.70;;;;;;;;;;12629624;28;20039;-82
2022/07/03 12:18:51;;;;;;;1.65;0.75;;;;;;;;;;12629454;28;20043;-82
2022/07/03 12:25:01;;;;;;;2.53;0.90;;;;;;;;;;12629291;28;20048;-82
2022/07/03 12:31:03;;;;;;;1.97;0.90;;;;;;;;;;12628994;28;20055;-82
2022/07/03 12:37:04;;;;;;;1.50;1.13;;;;;;;;;;12646576;28;20059;-82
2022/07/03 12:43:06;;;;;;;1.15;1.05;;;;;;;;;;12646371;28;20043;-82
2022/07/03 12:49:12;;;;;;;1.80;1.30;;;;;;;;;;12611120;28;20044;-82
2022/07/03 12:55:22;;;;;;;2.40;1.00;;;;;;;;;;12628902;28;20032;-82
2022/07/03 13:01:28;;;;;;;0.98;0.60;;;;;;;;;;12612035;28;20040;-81
2022/07/03 13:07:30;;;;;;;2.08;0.88;;;;;;;;;;12628055;28;20028;-82
2022/07/03 13:13:47;;;;;;;2.90;1.10;;;;;;;;;;12645381;28;20468;-82
2022/07/03 13:19:49;;;;;;;2.17;0.90;;;;;;;;;;12610253;28;20043;-82
2022/07/03 13:25:51;;;;;;;0.95;0.90;;;;;;;;;;12626718;28;20028;-82
2022/07/03 13:31:53;;;;;;;1.75;0.68;;;;;;;;;;12644955;28;20361;-83
2022/07/03 13:37:55;;;;;;;1.13;0.77;;;;;;;;;;12626865;28;20051;-83
2022/07/03 13:43:57;;;;;;;0.60;0.60;;;;;;;;;;12627313;28;20071;-82
2022/07/03 13:49:59;;;;;;;0.70;0.70;;;;;;;;;;12626839;28;20527;-82
2022/07/03 13:56:00;;;;;;;1.27;1.00;;;;;;;;;;12644198;28;20401;-83
2022/07/03 14:02:02;;;;;;;1.45;0.90;;;;;;;;;;12650068;28;20059;-82
2022/07/03 14:08:04;;;;;;;1.45;0.70;;;;;;;;;;12654378;28;20032;-83
2022/07/03 14:14:06;;;;;;;0.75;0.75;;;;;;;;;;12635289;28;20036;-85
2022/07/03 14:20:08;;;;;;;2.75;1.00;;;;;;;;;;12652770;28;20519;-85
2022/07/03 14:26:09;;;;;;;2.53;1.00;;;;;;;;;;12652596;28;20055;-82
2022/07/03 14:32:29;;;;;;;1.20;0.77;;;;;;;;;;12638340;28;20369;-81
2022/07/03 14:38:31;;;;;;;1.42;0.98;;;;;;;;;;12651684;28;20052;-83
2022/07/03 14:44:33;;;;;;;1.73;0.70;;;;;;;;;;12652537;28;20040;-83
2022/07/03 14:50:35;;;;;;;1.10;1.00;;;;;;;;;;12652862;28;20051;-85
2022/07/03 14:56:41;;;;;;;2.45;0.80;;;;;;;;;;12651673;28;20051;-84
2022/07/03 15:02:50;;;;;;;1.00;0.60;;;;;;;;;;12651696;28;20399;-82
2022/07/03 15:09:05;;;;;;;1.70;0.73;;;;;;;;;;12651991;28;20036;-86
2022/07/03 15:15:14;;;;;;;2.13;0.70;;;;;;;;;;12632246;28;20040;-84
2022/07/03 15:21:16;;;;;;;1.17;0.70;;;;;;;;;;12632508;28;20036;-84
2022/07/03 15:27:23;;;;;;;1.42;0.98;;;;;;;;;;12632486;28;20035;-82
2022/07/03 15:33:27;;;;;;;1.67;0.80;;;;;;;;;;12632304;28;20035;-82
2022/07/03 15:39:42;;;;;;;2.78;0.60;;;;;;;;;;12649688;28;20077;-77
2022/07/03 15:46:09;;;;;;;0.55;0.50;;;;;;;;;;12649208;28;20404;-77
2022/07/03 15:52:21;;;;;;;0.80;0.55;;;;;;;;;;12649363;28;20028;-78
2022/07/03 15:58:27;;;;;;;2.25;0.80;;;;;;;;;;12614120;28;20062;-77
2022/07/03 16:04:29;;;;;;;1.30;0.80;;;;;;;;;;12648078;28;20032;-79
2022/07/03 16:10:32;;;;;;;2.25;1.00;;;;;;;;;;12630317;28;20471;-78
2022/07/03 16:16:34;;;;;;;1.25;0.82;;;;;;;;;;12631107;28;20047;-78
2022/07/03 16:22:37;;;;;;;0.93;0.70;;;;;;;;;;12629277;28;20024;-78
2022/07/03 16:28:40;;;;;;;1.25;0.50;;;;;;;;;;12647042;28;20047;-78
2022/07/03 16:34:51;;;;;;;2.25;0.70;;;;;;;;;;12629696;28;20036;-78
2022/07/03 16:40:53;;;;;;;1.17;0.60;;;;;;;;;;12629390;28;20056;-79
2022/07/03 16:46:59;;;;;;;1.30;0.50;;;;;;;;;;12646456;28;20067;-78
2022/07/03 16:53:00;;;;;;;1.17;0.70;;;;;;;;;;12611255;28;20392;-79
2022/07/03 16:59:03;;;;;;;1.35;0.82;;;;;;;;;;12646326;28;20499;-78
2022/07/03 17:05:05;;;;;;;1.60;0.75;;;;;;;;;;12644901;28;20048;-79
2022/07/03 17:11:07;;;;;;;3.10;0.80;;;;;;;;;;12645319;28;20154;-78
2022/07/03 17:17:14;;;;;;;2.10;0.85;;;;;;;;;;12645176;28;20480;-78
2022/07/03 17:23:17;;;;;;;1.67;0.90;;;;;;;;;;12626467;28;20056;-78
2022/07/03 17:29:21;;;;;;;1.10;0.80;;;;;;;;;;12626554;28;20379;-78
2022/07/03 17:35:26;;;;;;;0.93;0.70;;;;;;;;;;12643815;28;20488;-78
2022/07/03 17:41:30;;;;;;;1.85;0.80;;;;;;;;;;12644526;28;20044;-78
2022/07/03 17:47:32;;;;;;;2.90;1.10;;;;;;;;;;12644016;28;20044;-78
2022/07/03 17:53:35;;;;;;;1.75;0.77;;;;;;;;;;12626253;28;20040;-81
2022/07/03 17:59:37;;;;;;;1.40;0.80;;;;;;;;;;12625910;28;20039;-81
2022/07/03 18:05:43;;;;;;;1.55;0.85;;;;;;;;;;12625821;28;20024;-81
2022/07/03 18:11:57;;;;;;;1.98;0.82;;;;;;;;;;12644145;28;20039;-78
2022/07/03 18:18:05;;;;;;;1.10;0.80;;;;;;;;;;12644699;28;20044;-82
2022/07/03 18:24:10;;;;;;;1.50;1.00;;;;;;;;;;12625276;28;20110;-82
2022/07/03 18:30:13;;;;;;;1.02;0.77;;;;;;;;;;12643339;28;20074;-82
2022/07/03 18:36:16;;;;;;;0.90;0.77;;;;;;;;;;12625280;28;20074;-81
2022/07/03 18:42:19;;;;;;;0.88;0.80;;;;;;;;;;12625451;28;20052;-82
2022/07/03 18:48:21;;;;;;;0.95;0.80;;;;;;;;;;12630745;28;20032;-82
2022/07/03 18:54:30;;;;;;;1.45;0.93;;;;;;;;;;12651790;28;20028;-81
2022/07/03 19:00:35;;;;;;;2.25;1.10;;;;;;;;;;12633021;28;20114;-82
2022/07/03 19:06:39;;;;;;;1.52;1.27;;;;;;;;;;12616621;28;20383;-82
2022/07/03 19:12:47;;;;;;;1.52;1.10;;;;;;;;;;12632523;28;20059;-82
2022/07/03 19:18:49;;;;;;;1.05;0.95;;;;;;;;;;12650702;28;20043;-82
2022/07/03 19:24:50;;;;;;;2.88;1.10;;;;;;;;;;12632345;28;20491;-82
2022/07/03 19:30:53;;;;;;;3.35;1.25;;;;;;;;;;12615485;28;20031;-79
2022/07/03 19:36:55;;;;;;;1.52;1.42;;;;;;;;;;12631604;28;20039;-79
2022/07/03 19:42:56;;;;;;;2.55;1.45;;;;;;;;;;12649607;28;20478;-81
2022/07/03 19:48:58;;;;;;;2.95;1.23;;;;;;;;;;12632024;28;20028;-81
2022/07/03 19:55:00;;;;;;;1.73;1.10;;;;;;;;;;12630958;28;20032;-82
2022/07/03 20:01:03;;;;;;;1.52;1.42;;;;;;;;;;12648426;28;20036;-79
2022/07/03 20:07:04;;;;;;;1.50;1.40;;;;;;;;;;12631013;28;20028;-79
2022/07/03 20:13:06;;;;;;;2.33;1.50;;;;;;;;;;12647956;28;20043;-82
2022/07/03 20:19:08;;;;;;;1.35;1.00;;;;;;;;;;12629685;28;20039;-82
2022/07/03 20:25:09;;;;;;;2.25;1.38;;;;;;;;;;12629316;28;20032;-82
2022/07/03 20:31:11;;;;;;;2.55;1.30;;;;;;;;;;12647365;28;20036;-82
2022/07/03 20:37:15;;;;;;;2.00;1.15;;;;;;;;;;12629057;28;20075;-82
2022/07/03 20:43:16;;;;;;;3.17;1.90;;;;;;;;;;12628696;28;20036;-82
2022/07/03 20:49:18;;;;;;;2.20;2.00;;;;;;;;;;12628772;28;20032;-82
2022/07/03 20:55:20;;;;;;;3.15;2.03;;;;;;;;;;12611314;28;20032;-82
2022/07/03 21:01:22;;;;;;;3.30;2.25;;;;;;;;;;12628056;28;20036;-84
2022/07/03 21:07:23;;;;;;;4.63;2.00;;;;;;;;;;12611213;28;20039;-82
2022/07/03 21:13:25;;;;;;;2.97;1.75;;;;;;;;;;12644459;28;20035;-81
2022/07/03 21:19:27;;;;;;;2.22;2.03;;;;;;;;;;12645300;28;20050;-82
2022/07/03 21:25:28;;;;;;;1.95;1.85;;;;;;;;;;12645897;28;20031;-81
2022/07/03 21:31:30;;;;;;;2.20;1.80;;;;;;;;;;12627358;28;20040;-82
2022/07/03 21:37:32;;;;;;;2.30;2.00;;;;;;;;;;12626885;28;20063;-78
2022/07/03 21:43:34;;;;;;;2.20;1.90;;;;;;;;;;12627894;28;20039;-79
2022/07/03 21:49:36;;;;;;;4.40;2.30;;;;;;;;;;12644361;28;20028;-78
2022/07/03 21:55:37;;;;;;;4.55;2.22;;;;;;;;;;12644228;28;20451;-78
2022/07/03 22:01:39;;;;;;;2.90;2.10;;;;;;;;;;12609347;28;20364;-81
2022/07/03 22:07:41;;;;;;;2.25;2.00;;;;;;;;;;12609728;28;20028;-82
2022/07/03 22:13:42;;;;;;;3.15;1.90;;;;;;;;;;12643788;28;20051;-78
2022/07/03 22:19:44;;;;;;;2.38;2.10;;;;;;;;;;12609720;28;20043;-78
2022/07/03 22:25:46;;;;;;;2.22;1.95;;;;;;;;;;12653720;28;20467;-78
2022/07/03 22:31:54;;;;;;;3.78;2.25;;;;;;;;;;12653444;28;20556;-81
2022/07/03 22:37:55;;;;;;;2.30;2.10;;;;;;;;;;12618506;28;20158;-78
2022/07/03 22:43:57;;;;;;;2.38;2.10;;;;;;;;;;12634752;28;20031;-81
2022/07/03 22:49:59;;;;;;;2.65;1.73;;;;;;;;;;12652777;28;20028;-79
2022/07/03 22:56:01;;;;;;;2.35;1.83;;;;;;;;;;12634673;28;20036;-78
2022/07/03 23:02:02;;;;;;;2.50;2.25;;;;;;;;;;12633874;28;20028;-78
2022/07/03 23:08:04;;;;;;;2.45;2.20;;;;;;;;;;12652680;28;20039;-78
2022/07/03 23:14:06;;;;;;;2.83;2.40;;;;;;;;;;12633651;28;20040;-81
2022/07/03 23:20:08;;;;;;;2.95;2.00;;;;;;;;;;12650861;28;20518;-81
2022/07/03 23:26:10;;;;;;;2.90;2.33;;;;;;;;;;12616342;28;20379;-79
2022/07/03 23:32:12;;;;;;;2.80;2.13;;;;;;;;;;12649373;28;20040;-78
2022/07/03 23:38:14;;;;;;;2.80;2.47;;;;;;;;;;12650114;28;20048;-78
2022/07/03 23:44:16;;;;;;;2.47;2.20;;;;;;;;;;12650894;28;20039;-78
2022/07/03 23:50:34;;;;;;;2.63;2.40;;;;;;;;;;12615972;28;20059;-78
2022/07/03 23:56:36;;;;;;;1.98;1.88;;;;;;;;;;12649637;28;20044;-78
